Bien Aller — FT4171 — position and weather

sailwx.info

Track history (hours):
 
Tides and Currents Weather Stations Pressure Air Temp Water Temp Dewpoint Dewpoint Depression Visibility Wind Speed Wind Dir Waves Ship Positions

Bien Aller

Last reported at 2017-Aug-19 08:45 UTC. Time now 2017-Nov-23 11:03 UTC.
Position N 47°40' W 003°34'.
Warning: this ship's position is months out of date.

Length 10 m.

Type: Sailing vessel. MMSI: 227467830.

Date/timePositionNaut miles runAvg speedWind from/ knotsBaromVisibWave heightAir tempDewpointWater temp
2017-Aug-19 08:45N 47°40' W 003°34'1 4.2
2017-Aug-19 08:29N 47°40' W 003°32'2 4.4
2017-Aug-19 08:00N 47°40' W 003°29'2 3.9
2017-Aug-19 07:29N 47°39' W 003°27'0 0.1
2017-Aug-19 06:52N 47°39' W 003°27'0 0.0
2017-Aug-19 05:37N 47°39' W 003°27'0 0.0
2017-Aug-19 05:19N 47°39' W 003°27'0 0.0
2017-Aug-19 04:43N 47°39' W 003°27'0 0.0
2017-Aug-19 03:52N 47°39' W 003°27'0 0.0
2017-Aug-19 03:19N 47°39' W 003°27'0 0.0
2017-Aug-19 02:52N 47°39' W 003°27'0 0.0
2017-Aug-19 02:13N 47°39' W 003°27'0 0.0
2017-Aug-19 01:46N 47°39' W 003°27'0 0.0
2017-Aug-19 01:28N 47°39' W 003°27'0 0.0
2017-Aug-19 00:55N 47°39' W 003°27'0 0.0
2017-Aug-19 00:04N 47°39' W 003°27'0 0.0
2017-Aug-18 23:52N 47°39' W 003°27'0 0.0
2017-Aug-18 23:25N 47°39' W 003°27'0 0.0
2017-Aug-18 22:19N 47°39' W 003°27'0 0.0
2017-Aug-18 21:49N 47°39' W 003°27'0 0.0
2017-Aug-18 21:25N 47°39' W 003°27'0 0.0
2017-Aug-18 20:52N 47°39' W 003°27'0 0.0
2017-Aug-18 20:22N 47°39' W 003°27'0 0.0
2017-Aug-18 19:52N 47°39' W 003°27'0 0.0
2017-Aug-18 19:25N 47°39' W 003°27'0 0.0
2017-Aug-18 13:29N 47°39' W 003°27'1 2.5
2017-Aug-18 12:58N 47°39' W 003°25'3 5.1
2017-Aug-18 12:27N 47°37' W 003°22'3 5.4
2017-Aug-18 11:57N 47°35' W 003°20'3 4.5
2017-Aug-18 11:22N 47°33' W 003°17'2 4.4
2017-Aug-18 10:58N 47°31' W 003°15'2 4.4
2017-Aug-18 10:30N 47°30' W 003°13'3 4.7
2017-Aug-18 09:49N 47°28' W 003°09'2 4.4
2017-Aug-18 09:28N 47°27' W 003°07'10 0.5
2017-Aug-17 13:37N 47°33' W 002°55'1 4.9
2017-Aug-17 13:28N 47°34' W 002°55'2 4.6
2017-Aug-17 12:59N 47°35' W 002°52'1 0.2
2017-Aug-17 07:51N 47°36' W 002°52'0 0.0
2017-Aug-17 07:30N 47°36' W 002°52'0 0.0
2017-Aug-17 06:51N 47°36' W 002°51'0 0.0
2017-Aug-17 05:48N 47°36' W 002°52'0 0.0
2017-Aug-17 05:21N 47°36' W 002°52'0 0.0
2017-Aug-17 04:54N 47°36' W 002°52'0 0.0
2017-Aug-17 04:21N 47°36' W 002°52'0 0.0
2017-Aug-17 03:39N 47°36' W 002°52'0 0.0
2017-Aug-17 03:09N 47°36' W 002°52'0 0.0
2017-Aug-17 02:39N 47°36' W 002°52'0 0.0
2017-Aug-17 02:21N 47°36' W 002°52'0 0.0
2017-Aug-17 01:51N 47°36' W 002°52'0 0.0
2017-Aug-17 00:54N 47°36' W 002°52'0 0.0
2017-Aug-17 00:24N 47°36' W 002°52'0 0.0
2017-Aug-16 23:54N 47°36' W 002°52'0 0.0
2017-Aug-16 23:30N 47°36' W 002°52'0 0.0
2017-Aug-16 22:57N 47°36' W 002°52'0 0.0
2017-Aug-16 22:30N 47°36' W 002°52'0 0.0
2017-Aug-16 22:00N 47°36' W 002°52'0 0.0
2017-Aug-16 21:12N 47°36' W 002°52'0 0.0
2017-Aug-16 20:57N 47°36' W 002°52'0 0.0
2017-Aug-16 20:30N 47°36' W 002°52'0 0.0
2017-Aug-16 19:48N 47°36' W 002°52'0 0.0
2017-Aug-16 19:18N 47°36' W 002°52'0 0.0
2017-Aug-16 18:18N 47°36' W 002°52'0 0.0
2017-Aug-16 17:15N 47°36' W 002°52'0 0.0
2017-Aug-16 09:57N 47°36' W 002°52'2 3.5
2017-Aug-16 09:29N 47°35' W 002°53'3 7.2
2017-Aug-16 09:00N 47°32' W 002°56'3 5.9
2017-Aug-16 08:30N 47°30' W 002°58'3 6.1
2017-Aug-16 07:57N 47°27' W 003°02'3 6.0
2017-Aug-16 07:25N 47°25' W 003°05'5 0.4
2017-Aug-15 16:38N 47°20' W 003°09'2 6.0
2017-Aug-15 16:17N 47°22' W 003°10'2 5.1
2017-Aug-15 15:56N 47°24' W 003°12'2 4.7
2017-Aug-15 15:27N 47°25' W 003°14'2 4.3
2017-Aug-15 14:59N 47°26' W 003°17'3 5.0
2017-Aug-15 14:24N 47°29' W 003°19'3 5.5
2017-Aug-15 13:54N 47°31' W 003°21'2 5.7
2017-Aug-15 13:29N 47°33' W 003°23'3 5.6
2017-Aug-15 13:00N 47°35' W 003°25'2 4.4
2017-Aug-15 12:30N 47°37' W 003°28'4 3.8
2017-Aug-15 11:22N 47°39' W 003°33'2 3.9
2017-Aug-15 10:57N 47°40' W 003°35'  
Track history (hours):
 
Tides and Currents Weather Stations Pressure Air Temp Water Temp Dewpoint Dewpoint Depression Visibility Wind Speed Wind Dir Waves Ship Positions

Bien Aller

Last reported at 2017-Aug-19 08:45 UTC. Time now 2017-Nov-23 11:03 UTC.
Position N 47°40' W 003°34'.
Warning: this ship's position is months out of date.

Length 10 m.

Type: Sailing vessel. MMSI: 227467830.

Date/timePositionNaut miles runAvg speedWind from/ knotsBaromVisibWave heightAir tempDewpointWater temp
2017-Aug-19 08:45N 47°40' W 003°34'1 4.2
2017-Aug-19 08:29N 47°40' W 003°32'2 4.4
2017-Aug-19 08:00N 47°40' W 003°29'2 3.9
2017-Aug-19 07:29N 47°39' W 003°27'0 0.1
2017-Aug-19 06:52N 47°39' W 003°27'0 0.0
2017-Aug-19 05:37N 47°39' W 003°27'0 0.0
2017-Aug-19 05:19N 47°39' W 003°27'0 0.0
2017-Aug-19 04:43N 47°39' W 003°27'0 0.0
2017-Aug-19 03:52N 47°39' W 003°27'0 0.0
2017-Aug-19 03:19N 47°39' W 003°27'0 0.0
2017-Aug-19 02:52N 47°39' W 003°27'0 0.0
2017-Aug-19 02:13N 47°39' W 003°27'0 0.0
2017-Aug-19 01:46N 47°39' W 003°27'0 0.0
2017-Aug-19 01:28N 47°39' W 003°27'0 0.0
2017-Aug-19 00:55N 47°39' W 003°27'0 0.0
2017-Aug-19 00:04N 47°39' W 003°27'0 0.0
2017-Aug-18 23:52N 47°39' W 003°27'0 0.0
2017-Aug-18 23:25N 47°39' W 003°27'0 0.0
2017-Aug-18 22:19N 47°39' W 003°27'0 0.0
2017-Aug-18 21:49N 47°39' W 003°27'0 0.0
2017-Aug-18 21:25N 47°39' W 003°27'0 0.0
2017-Aug-18 20:52N 47°39' W 003°27'0 0.0
2017-Aug-18 20:22N 47°39' W 003°27'0 0.0
2017-Aug-18 19:52N 47°39' W 003°27'0 0.0
2017-Aug-18 19:25N 47°39' W 003°27'0 0.0
2017-Aug-18 13:29N 47°39' W 003°27'1 2.5
2017-Aug-18 12:58N 47°39' W 003°25'3 5.1
2017-Aug-18 12:27N 47°37' W 003°22'3 5.4
2017-Aug-18 11:57N 47°35' W 003°20'3 4.5
2017-Aug-18 11:22N 47°33' W 003°17'2 4.4
2017-Aug-18 10:58N 47°31' W 003°15'2 4.4
2017-Aug-18 10:30N 47°30' W 003°13'3 4.7
2017-Aug-18 09:49N 47°28' W 003°09'2 4.4
2017-Aug-18 09:28N 47°27' W 003°07'10 0.5
2017-Aug-17 13:37N 47°33' W 002°55'1 4.9
2017-Aug-17 13:28N 47°34' W 002°55'2 4.6
2017-Aug-17 12:59N 47°35' W 002°52'1 0.2
2017-Aug-17 07:51N 47°36' W 002°52'0 0.0
2017-Aug-17 07:30N 47°36' W 002°52'0 0.0
2017-Aug-17 06:51N 47°36' W 002°51'0 0.0
2017-Aug-17 05:48N 47°36' W 002°52'0 0.0
2017-Aug-17 05:21N 47°36' W 002°52'0 0.0
2017-Aug-17 04:54N 47°36' W 002°52'0 0.0
2017-Aug-17 04:21N 47°36' W 002°52'0 0.0
2017-Aug-17 03:39N 47°36' W 002°52'0 0.0
2017-Aug-17 03:09N 47°36' W 002°52'0 0.0
2017-Aug-17 02:39N 47°36' W 002°52'0 0.0
2017-Aug-17 02:21N 47°36' W 002°52'0 0.0
2017-Aug-17 01:51N 47°36' W 002°52'0 0.0
2017-Aug-17 00:54N 47°36' W 002°52'0 0.0
2017-Aug-17 00:24N 47°36' W 002°52'0 0.0
2017-Aug-16 23:54N 47°36' W 002°52'0 0.0
2017-Aug-16 23:30N 47°36' W 002°52'0 0.0
2017-Aug-16 22:57N 47°36' W 002°52'0 0.0
2017-Aug-16 22:30N 47°36' W 002°52'0 0.0
2017-Aug-16 22:00N 47°36' W 002°52'0 0.0
2017-Aug-16 21:12N 47°36' W 002°52'0 0.0
2017-Aug-16 20:57N 47°36' W 002°52'0 0.0
2017-Aug-16 20:30N 47°36' W 002°52'0 0.0
2017-Aug-16 19:48N 47°36' W 002°52'0 0.0
2017-Aug-16 19:18N 47°36' W 002°52'0 0.0
2017-Aug-16 18:18N 47°36' W 002°52'0 0.0
2017-Aug-16 17:15N 47°36' W 002°52'0 0.0
2017-Aug-16 09:57N 47°36' W 002°52'2 3.5
2017-Aug-16 09:29N 47°35' W 002°53'3 7.2
2017-Aug-16 09:00N 47°32' W 002°56'3 5.9
2017-Aug-16 08:30N 47°30' W 002°58'3 6.1
2017-Aug-16 07:57N 47°27' W 003°02'3 6.0
2017-Aug-16 07:25N 47°25' W 003°05'5 0.4
2017-Aug-15 16:38N 47°20' W 003°09'2 6.0
2017-Aug-15 16:17N 47°22' W 003°10'2 5.1
2017-Aug-15 15:56N 47°24' W 003°12'2 4.7
2017-Aug-15 15:27N 47°25' W 003°14'2 4.3
2017-Aug-15 14:59N 47°26' W 003°17'3 5.0
2017-Aug-15 14:24N 47°29' W 003°19'3 5.5
2017-Aug-15 13:54N 47°31' W 003°21'2 5.7
2017-Aug-15 13:29N 47°33' W 003°23'3 5.6
2017-Aug-15 13:00N 47°35' W 003°25'2 4.4
2017-Aug-15 12:30N 47°37' W 003°28'4 3.8
2017-Aug-15 11:22N 47°39' W 003°33'2 3.9
2017-Aug-15 10:57N 47°40' W 003°35'  

Dump ship's entire track history